Time;durP1;ratioP1;P1;durP2;ratioP2;P2;SDS_P1;SDS_P2;PMS_P1;PMS_P2;Temp;Humidity;BMP_temperature;BMP_pressure;BME280_temperature;BME280_humidity;BME280_pressure;Samples;Min_cycle;Max_cycle;Signal;HPM_P1;HPM_P2
2021/01/09 00:00:06;;;;;;;18.30;12.27;;;;;;;;;;5048835;28;20069;-69
2021/01/09 00:02:32;;;;;;;19.73;11.35;;;;;;;;;;5032277;28;20138;-69
2021/01/09 00:04:58;;;;;;;20.88;12.73;;;;;;;;;;5032104;28;20049;-69
2021/01/09 00:07:24;;;;;;;19.60;11.98;;;;;;;;;;5067705;28;20052;-70
2021/01/09 00:09:50;;;;;;;17.95;11.77;;;;;;;;;;5051646;28;20085;-69
2021/01/09 00:12:16;;;;;;;18.85;11.40;;;;;;;;;;5052907;28;20102;-68
2021/01/09 00:14:42;;;;;;;18.02;11.10;;;;;;;;;;5051902;28;20080;-69
2021/01/09 00:17:08;;;;;;;21.85;12.40;;;;;;;;;;5052680;28;20122;-69
2021/01/09 00:19:37;;;;;;;19.50;11.90;;;;;;;;;;5033536;28;20103;-69
2021/01/09 00:22:03;;;;;;;20.17;12.18;;;;;;;;;;5031645;28;20511;-68
2021/01/09 00:24:30;;;;;;;20.88;12.30;;;;;;;;;;5031548;28;20045;-69
2021/01/09 00:26:56;;;;;;;20.77;13.00;;;;;;;;;;5031369;28;20049;-68
2021/01/09 00:29:22;;;;;;;20.55;12.63;;;;;;;;;;5032585;28;20091;-69
2021/01/09 00:31:48;;;;;;;18.10;11.13;;;;;;;;;;5052094;28;20099;-68
2021/01/09 00:34:15;;;;;;;18.13;11.77;;;;;;;;;;5052767;28;20076;-69
2021/01/09 00:36:46;;;;;;;17.75;11.18;;;;;;;;;;5052398;28;20052;-69
2021/01/09 00:39:12;;;;;;;22.13;13.23;;;;;;;;;;5055482;28;20049;-70
2021/01/09 00:41:38;;;;;;;20.27;12.43;;;;;;;;;;5047685;28;20080;-69
2021/01/09 00:44:04;;;;;;;20.88;12.73;;;;;;;;;;5047734;28;20088;-69
2021/01/09 00:46:31;;;;;;;18.52;11.55;;;;;;;;;;5033980;28;20056;-69
2021/01/09 00:48:57;;;;;;;19.38;12.13;;;;;;;;;;5052495;28;20147;-69
2021/01/09 00:51:23;;;;;;;21.02;12.38;;;;;;;;;;5052136;28;20388;-69
2021/01/09 00:53:49;;;;;;;21.00;12.18;;;;;;;;;;5052185;28;20573;-69
2021/01/09 00:56:16;;;;;;;19.50;12.05;;;;;;;;;;5050653;28;20098;-69
2021/01/09 00:58:42;;;;;;;24.02;12.27;;;;;;;;;;5067509;28;20048;-68
2021/01/09 01:01:09;;;;;;;20.27;12.88;;;;;;;;;;5067400;28;20045;-69
2021/01/09 01:03:35;;;;;;;18.77;11.65;;;;;;;;;;5051187;28;20144;-68
2021/01/09 01:06:01;;;;;;;18.88;11.90;;;;;;;;;;5067180;28;20045;-69
2021/01/09 01:08:28;;;;;;;18.17;11.68;;;;;;;;;;5052631;28;20130;-70
2021/01/09 01:10:55;;;;;;;20.85;12.98;;;;;;;;;;5052173;28;20102;-70
2021/01/09 01:13:21;;;;;;;19.13;11.40;;;;;;;;;;5050987;28;20469;-69
2021/01/09 01:15:48;;;;;;;22.00;11.85;;;;;;;;;;5067434;28;20553;-69
2021/01/09 01:18:15;;;;;;;18.88;12.57;;;;;;;;;;5037701;28;20055;-70
2021/01/09 01:20:41;;;;;;;24.83;12.90;;;;;;;;;;5031108;28;20042;-69
2021/01/09 01:23:07;;;;;;;17.52;11.25;;;;;;;;;;5032129;28;20500;-69
2021/01/09 01:25:33;;;;;;;19.42;12.35;;;;;;;;;;5032008;28;20136;-69
2021/01/09 01:27:59;;;;;;;19.83;12.90;;;;;;;;;;5047525;28;20107;-69
2021/01/09 01:30:26;;;;;;;24.05;13.02;;;;;;;;;;5032241;28;20053;-69
2021/01/09 01:32:52;;;;;;;21.92;12.85;;;;;;;;;;5033130;28;20467;-69
2021/01/09 01:35:18;;;;;;;22.33;13.48;;;;;;;;;;5031608;28;20103;-69
2021/01/09 01:37:47;;;;;;;20.05;12.55;;;;;;;;;;5031648;28;20053;-69
2021/01/09 01:40:13;;;;;;;19.45;13.02;;;;;;;;;;5030872;28;20045;-68
2021/01/09 01:42:39;;;;;;;25.55;14.43;;;;;;;;;;5049193;28;20565;-68
2021/01/09 01:45:08;;;;;;;21.45;13.38;;;;;;;;;;5051381;28;20056;-69
2021/01/09 01:47:34;;;;;;;22.50;13.35;;;;;;;;;;5066797;28;20053;-68
2021/01/09 01:50:02;;;;;;;19.60;12.45;;;;;;;;;;5067042;28;20455;-69
2021/01/09 01:52:28;;;;;;;21.80;13.77;;;;;;;;;;5051420;28;20060;-68
2021/01/09 01:54:54;;;;;;;20.15;12.95;;;;;;;;;;5050348;28;20044;-69
2021/01/09 01:57:20;;;;;;;25.20;15.15;;;;;;;;;;5050000;28;20048;-69
2021/01/09 01:59:46;;;;;;;24.05;14.40;;;;;;;;;;5051431;28;20044;-69
2021/01/09 02:02:13;;;;;;;26.35;13.82;;;;;;;;;;5051303;28;20049;-69
2021/01/09 02:04:40;;;;;;;22.85;13.20;;;;;;;;;;5066927;28;20503;-70
2021/01/09 02:07:18;;;;;;;23.40;14.15;;;;;;;;;;5066385;28;20503;-69
2021/01/09 02:09:45;;;;;;;23.20;13.48;;;;;;;;;;5066558;28;20098;-69
2021/01/09 02:12:12;;;;;;;26.42;13.93;;;;;;;;;;5066625;28;20048;-69
2021/01/09 02:14:40;;;;;;;28.00;15.65;;;;;;;;;;5051379;28;20102;-69
2021/01/09 02:17:06;;;;;;;25.23;15.07;;;;;;;;;;5065498;28;20266;-69
2021/01/09 02:19:38;;;;;;;21.27;13.07;;;;;;;;;;5030156;28;20049;-69
2021/01/09 02:22:05;;;;;;;22.90;14.80;;;;;;;;;;5046087;28;20096;-69
2021/01/09 02:24:31;;;;;;;24.10;14.65;;;;;;;;;;5030068;28;20550;-69
2021/01/09 02:26:58;;;;;;;24.23;14.68;;;;;;;;;;5046360;28;20050;-69
2021/01/09 02:29:24;;;;;;;22.95;13.95;;;;;;;;;;5029895;28;20677;-69
2021/01/09 02:32:03;;;;;;;24.67;14.30;;;;;;;;;;5030085;28;20049;-69
2021/01/09 02:34:38;;;;;;;21.20;13.63;;;;;;;;;;5046582;28;20049;-69
2021/01/09 02:37:04;;;;;;;24.48;14.73;;;;;;;;;;5029884;28;20100;-69
2021/01/09 02:39:31;;;;;;;24.45;14.68;;;;;;;;;;5029775;28;20081;-68
2021/01/09 02:41:57;;;;;;;23.48;14.27;;;;;;;;;;5029951;28;20482;-69
2021/01/09 02:44:23;;;;;;;24.83;14.68;;;;;;;;;;5029562;28;20139;-69
2021/01/09 02:46:49;;;;;;;26.42;16.45;;;;;;;;;;5046307;28;20061;-69
2021/01/09 02:49:16;;;;;;;23.95;14.02;;;;;;;;;;5014171;28;20480;-69
2021/01/09 02:51:42;;;;;;;26.55;15.35;;;;;;;;;;5052570;28;20092;-68
2021/01/09 02:54:08;;;;;;;23.90;14.52;;;;;;;;;;5053394;28;20053;-68
2021/01/09 02:56:34;;;;;;;26.85;14.93;;;;;;;;;;5069747;28;20060;-69
2021/01/09 02:59:00;;;;;;;26.15;15.68;;;;;;;;;;5069816;28;20565;-69
2021/01/09 03:01:27;;;;;;;26.15;14.10;;;;;;;;;;5054286;28;20099;-68
2021/01/09 03:03:55;;;;;;;21.70;13.90;;;;;;;;;;5069937;28;20044;-69
2021/01/09 03:06:21;;;;;;;25.55;15.65;;;;;;;;;;5052880;28;20118;-69
2021/01/09 03:08:47;;;;;;;27.15;16.02;;;;;;;;;;5054234;28;20482;-68
2021/01/09 03:11:15;;;;;;;25.23;15.00;;;;;;;;;;5069060;28;20114;-69
2021/01/09 03:13:41;;;;;;;26.20;15.85;;;;;;;;;;5053239;28;20569;-69
2021/01/09 03:16:08;;;;;;;22.58;13.75;;;;;;;;;;5053908;28;20053;-69
2021/01/09 03:18:34;;;;;;;24.58;15.27;;;;;;;;;;5052833;28;20496;-69
2021/01/09 03:21:01;;;;;;;25.27;15.40;;;;;;;;;;5052463;28;20045;-69
2021/01/09 03:23:27;;;;;;;26.27;16.00;;;;;;;;;;5069368;28;20095;-69
2021/01/09 03:25:53;;;;;;;27.23;15.43;;;;;;;;;;5069367;28;20415;-68
2021/01/09 03:28:19;;;;;;;26.30;15.23;;;;;;;;;;5052561;28;20492;-68
2021/01/09 03:30:45;;;;;;;24.73;14.93;;;;;;;;;;5054022;28;20455;-69
2021/01/09 03:33:12;;;;;;;24.58;14.30;;;;;;;;;;5052722;28;20049;-68
2021/01/09 03:35:38;;;;;;;27.08;15.93;;;;;;;;;;5052648;28;20061;-68
2021/01/09 03:38:04;;;;;;;24.58;14.15;;;;;;;;;;5052632;28;20052;-68
2021/01/09 03:40:30;;;;;;;24.30;14.70;;;;;;;;;;5047188;28;20119;-68
2021/01/09 03:42:56;;;;;;;27.00;15.70;;;;;;;;;;5033777;28;20049;-69
2021/01/09 03:45:22;;;;;;;26.52;15.48;;;;;;;;;;5033454;28;20057;-68
2021/01/09 03:47:48;;;;;;;27.58;16.60;;;;;;;;;;5049070;28;20099;-68
2021/01/09 03:50:16;;;;;;;26.00;14.93;;;;;;;;;;5033766;28;20045;-68
2021/01/09 03:52:42;;;;;;;25.30;14.40;;;;;;;;;;5033657;28;20050;-69
2021/01/09 03:55:08;;;;;;;24.92;14.70;;;;;;;;;;5048675;28;20084;-68
2021/01/09 03:57:34;;;;;;;27.88;15.90;;;;;;;;;;5032322;28;20054;-68
2021/01/09 04:00:05;;;;;;;25.73;14.70;;;;;;;;;;5033388;28;20060;-68
2021/01/09 04:02:31;;;;;;;27.27;15.82;;;;;;;;;;5032903;28;20049;-68
2021/01/09 04:04:57;;;;;;;23.98;14.15;;;;;;;;;;5032331;28;20076;-68
2021/01/09 04:07:23;;;;;;;26.20;14.95;;;;;;;;;;5032984;28;20053;-68
2021/01/09 04:09:49;;;;;;;27.40;15.75;;;;;;;;;;5070817;22;20044;-72
2021/01/09 04:12:15;;;;;;;27.73;15.00;;;;;;;;;;5052958;28;20068;-72
2021/01/09 04:14:41;;;;;;;28.40;15.90;;;;;;;;;;5051937;28;20060;-72
2021/01/09 04:17:07;;;;;;;25.33;15.70;;;;;;;;;;5051531;28;20491;-72
2021/01/09 04:19:33;;;;;;;26.80;16.02;;;;;;;;;;5062037;28;20548;-72
2021/01/09 04:21:59;;;;;;;25.42;15.50;;;;;;;;;;5072719;28;20483;-72
2021/01/09 04:24:25;;;;;;;24.38;15.05;;;;;;;;;;5072667;28;20048;-72
2021/01/09 04:26:53;;;;;;;27.95;15.55;;;;;;;;;;5072305;28;20048;-72
2021/01/09 04:29:19;;;;;;;26.80;17.20;;;;;;;;;;5072430;28;20059;-72
2021/01/09 04:31:46;;;;;;;26.02;15.90;;;;;;;;;;5072482;28;20070;-73
2021/01/09 04:34:12;;;;;;;27.58;16.27;;;;;;;;;;5072473;28;20048;-72
2021/01/09 04:36:38;;;;;;;29.33;17.30;;;;;;;;;;5072389;28;20052;-72
2021/01/09 04:39:04;;;;;;;26.35;15.00;;;;;;;;;;5072076;28;20483;-72
2021/01/09 04:41:33;;;;;;;28.23;15.68;;;;;;;;;;5071159;28;20563;-73
2021/01/09 04:43:59;;;;;;;30.52;16.63;;;;;;;;;;5072529;28;20048;-72
2021/01/09 04:46:26;;;;;;;31.05;16.27;;;;;;;;;;5054294;28;20503;-73
2021/01/09 04:48:52;;;;;;;26.08;16.25;;;;;;;;;;5053972;28;20057;-72
2021/01/09 04:51:19;;;;;;;28.10;16.13;;;;;;;;;;5051142;28;20103;-73
2021/01/09 04:53:45;;;;;;;28.90;16.67;;;;;;;;;;5052390;28;20510;-73
2021/01/09 04:56:11;;;;;;;27.15;16.25;;;;;;;;;;5052048;28;20049;-72
2021/01/09 04:58:38;;;;;;;30.23;17.30;;;;;;;;;;5066328;28;20072;-72
2021/01/09 05:01:05;;;;;;;25.20;15.57;;;;;;;;;;5072028;28;20495;-73
2021/01/09 05:03:31;;;;;;;29.42;17.23;;;;;;;;;;5070696;28;20074;-72
2021/01/09 05:05:58;;;;;;;29.63;17.42;;;;;;;;;;5071931;28;20078;-72
2021/01/09 05:08:25;;;;;;;32.67;18.63;;;;;;;;;;5058705;28;20052;-72
2021/01/09 05:10:51;;;;;;;28.73;17.45;;;;;;;;;;5052146;28;20073;-73
2021/01/09 05:13:17;;;;;;;31.00;17.35;;;;;;;;;;5050400;28;20049;-72
2021/01/09 05:15:43;;;;;;;29.15;16.05;;;;;;;;;;5051270;28;20487;-72
2021/01/09 05:18:09;;;;;;;32.88;18.17;;;;;;;;;;5051908;28;20095;-72
2021/01/09 05:20:36;;;;;;;32.35;17.70;;;;;;;;;;5052061;28;20041;-73
2021/01/09 05:23:02;;;;;;;33.60;18.77;;;;;;;;;;5051893;28;20053;-72
2021/01/09 05:25:28;;;;;;;29.90;17.30;;;;;;;;;;5034087;28;20438;-72
2021/01/09 05:27:55;;;;;;;31.08;16.65;;;;;;;;;;5034200;28;20103;-72
2021/01/09 05:30:22;;;;;;;34.00;18.50;;;;;;;;;;5051646;28;20049;-72
2021/01/09 05:32:49;;;;;;;32.30;18.63;;;;;;;;;;5051800;28;20287;-72
2021/01/09 05:35:16;;;;;;;31.65;17.65;;;;;;;;;;5050275;28;20049;-72
2021/01/09 05:37:49;;;;;;;31.05;17.55;;;;;;;;;;5051631;28;20496;-72
2021/01/09 05:40:15;;;;;;;31.00;18.30;;;;;;;;;;5050194;28;20084;-72
2021/01/09 05:42:42;;;;;;;32.20;18.00;;;;;;;;;;5052005;28;20049;-72
2021/01/09 05:45:10;;;;;;;28.40;17.02;;;;;;;;;;5051648;28;20131;-72
2021/01/09 05:47:37;;;;;;;30.20;17.35;;;;;;;;;;5051482;28;20045;-72
2021/01/09 05:50:05;;;;;;;31.55;17.17;;;;;;;;;;5051628;28;20128;-72
2021/01/09 05:52:36;;;;;;;33.13;17.27;;;;;;;;;;5050475;28;20052;-72
2021/01/09 05:55:02;;;;;;;31.33;17.63;;;;;;;;;;5034184;28;20099;-72
2021/01/09 05:57:30;;;;;;;28.73;16.27;;;;;;;;;;5053297;28;20044;-72
2021/01/09 06:00:07;;;;;;;33.22;17.88;;;;;;;;;;5069907;28;20174;-72
2021/01/09 06:03:08;;;;;;;34.60;18.60;;;;;;;;;;5050041;28;20045;-73
2021/01/09 06:05:45;;;;;;;29.75;17.40;;;;;;;;;;5052018;28;20111;-72
2021/01/09 06:08:11;;;;;;;28.42;16.75;;;;;;;;;;5053806;28;20053;-73
2021/01/09 06:10:38;;;;;;;32.33;17.58;;;;;;;;;;5053728;28;20102;-73
2021/01/09 06:13:04;;;;;;;31.63;16.98;;;;;;;;;;5070262;28;20060;-72
2021/01/09 06:15:33;;;;;;;33.33;16.92;;;;;;;;;;5069898;28;20049;-72
2021/01/09 06:17:59;;;;;;;33.63;18.10;;;;;;;;;;5070211;28;20526;-72
2021/01/09 06:20:26;;;;;;;30.08;17.63;;;;;;;;;;5071250;28;20526;-73
2021/01/09 06:22:54;;;;;;;33.40;17.65;;;;;;;;;;5071304;28;20045;-72
2021/01/09 06:25:20;;;;;;;33.40;17.90;;;;;;;;;;5054161;28;20074;-72
2021/01/09 06:27:49;;;;;;;29.83;16.33;;;;;;;;;;5060792;28;20083;-73
2021/01/09 06:30:15;;;;;;;31.40;18.27;;;;;;;;;;5053581;28;20084;-73
2021/01/09 06:32:41;;;;;;;31.33;17.10;;;;;;;;;;5037207;28;20045;-73
2021/01/09 06:35:10;;;;;;;32.40;18.15;;;;;;;;;;5047803;28;20083;-72
2021/01/09 06:37:37;;;;;;;35.40;17.25;;;;;;;;;;5074674;28;20082;-72
2021/01/09 06:40:03;;;;;;;30.33;16.98;;;;;;;;;;5041852;28;20068;-72
2021/01/09 06:42:29;;;;;;;32.65;17.30;;;;;;;;;;5054165;28;20118;-72
2021/01/09 06:44:55;;;;;;;35.50;17.77;;;;;;;;;;5053123;28;20053;-72
2021/01/09 06:47:26;;;;;;;32.10;18.85;;;;;;;;;;5053146;28;20045;-73
2021/01/09 06:49:52;;;;;;;33.92;17.27;;;;;;;;;;5054543;28;20151;-73
2021/01/09 06:52:18;;;;;;;37.72;18.77;;;;;;;;;;5053382;28;20049;-73
2021/01/09 06:54:47;;;;;;;36.03;19.60;;;;;;;;;;5061171;28;20494;-73
2021/01/09 06:57:15;;;;;;;37.40;19.38;;;;;;;;;;5074724;28;20537;-73
2021/01/09 06:59:43;;;;;;;38.25;21.23;;;;;;;;;;5060878;28;20103;-73
2021/01/09 07:02:15;;;;;;;41.05;20.90;;;;;;;;;;5054375;28;20087;-73
2021/01/09 07:04:57;;;;;;;40.65;20.90;;;;;;;;;;5054011;28;20136;-73
2021/01/09 07:07:52;;;;;;;40.42;20.27;;;;;;;;;;5052880;28;20512;-73
2021/01/09 07:10:19;;;;;;;38.83;21.38;;;;;;;;;;5054144;28;20060;-73
2021/01/09 07:12:56;;;;;;;42.28;21.65;;;;;;;;;;5054286;28;20044;-73
2021/01/09 07:15:23;;;;;;;39.08;21.88;;;;;;;;;;5052654;28;20136;-73
2021/01/09 07:17:56;;;;;;;40.90;21.75;;;;;;;;;;5052908;28;20095;-73
2021/01/09 07:20:23;;;;;;;43.00;22.20;;;;;;;;;;5036710;28;20115;-73
2021/01/09 07:22:52;;;;;;;51.90;24.52;;;;;;;;;;5053903;28;20500;-73
2021/01/09 07:25:34;;;;;;;47.90;22.10;;;;;;;;;;5052514;28;20146;-73
2021/01/09 07:28:06;;;;;;;42.88;21.30;;;;;;;;;;5053915;28;20111;-71
2021/01/09 07:30:32;;;;;;;52.28;23.65;;;;;;;;;;5052789;28;20152;-73
2021/01/09 07:33:00;;;;;;;44.95;23.20;;;;;;;;;;5053813;28;20085;-72
2021/01/09 07:35:31;;;;;;;44.10;22.77;;;;;;;;;;5053493;28;20326;-74
2021/01/09 07:37:59;;;;;;;47.65;26.23;;;;;;;;;;5052466;28;20112;-74
2021/01/09 07:40:49;;;;;;;45.70;23.80;;;;;;;;;;5053397;28;20504;-74
2021/01/09 07:43:34;;;;;;;43.17;23.00;;;;;;;;;;5052348;28;20106;-73
2021/01/09 07:46:01;;;;;;;44.85;23.40;;;;;;;;;;5054819;28;20041;-71
2021/01/09 07:48:32;;;;;;;48.58;24.70;;;;;;;;;;5071849;28;20052;-71
2021/01/09 07:50:59;;;;;;;45.47;22.67;;;;;;;;;;5072053;28;20094;-71
2021/01/09 07:53:26;;;;;;;48.30;25.48;;;;;;;;;;5070244;28;20580;-71
2021/01/09 07:55:53;;;;;;;47.15;24.45;;;;;;;;;;5072064;28;20079;-71
2021/01/09 07:58:41;;;;;;;44.35;22.77;;;;;;;;;;5072022;28;20194;-71
2021/01/09 08:01:07;;;;;;;40.72;21.25;;;;;;;;;;5067707;28;20045;-71
2021/01/09 08:03:34;;;;;;;41.55;23.13;;;;;;;;;;5052390;28;20592;-71
2021/01/09 08:06:00;;;;;;;45.92;23.25;;;;;;;;;;5051542;28;20056;-71
2021/01/09 08:08:26;;;;;;;45.40;24.52;;;;;;;;;;5052956;28;20114;-71
2021/01/09 08:10:52;;;;;;;49.30;23.88;;;;;;;;;;5065275;28;20079;-71
2021/01/09 08:13:21;;;;;;;43.78;22.92;;;;;;;;;;5073044;28;20074;-71
2021/01/09 08:15:48;;;;;;;45.53;24.08;;;;;;;;;;5072764;28;20098;-71
2021/01/09 08:18:14;;;;;;;44.78;23.05;;;;;;;;;;5072682;28;20392;-71
2021/01/09 08:20:40;;;;;;;44.35;22.23;;;;;;;;;;5072775;28;20084;-71
2021/01/09 08:23:07;;;;;;;39.05;22.00;;;;;;;;;;5061566;28;20573;-70
2021/01/09 08:25:38;;;;;;;45.50;23.52;;;;;;;;;;5051415;28;20088;-71
2021/01/09 08:28:04;;;;;;;44.97;22.45;;;;;;;;;;5052953;28;20056;-71
2021/01/09 08:30:35;;;;;;;49.72;25.48;;;;;;;;;;5052814;28;20080;-71
2021/01/09 08:33:04;;;;;;;41.95;21.23;;;;;;;;;;5052610;28;20053;-71
2021/01/09 08:35:30;;;;;;;44.80;21.88;;;;;;;;;;5052687;28;20107;-71
2021/01/09 08:37:57;;;;;;;44.22;22.83;;;;;;;;;;5052554;28;20049;-71
2021/01/09 08:40:24;;;;;;;44.05;23.52;;;;;;;;;;5052847;28;20067;-71
2021/01/09 08:42:57;;;;;;;44.40;23.75;;;;;;;;;;5052351;28;20076;-70
2021/01/09 08:45:44;;;;;;;42.85;23.40;;;;;;;;;;5052320;28;20503;-71
2021/01/09 08:48:12;;;;;;;45.58;23.30;;;;;;;;;;5032380;28;20049;-71
2021/01/09 08:50:58;;;;;;;42.35;21.10;;;;;;;;;;5032503;28;20103;-70
2021/01/09 08:53:34;;;;;;;45.92;23.60;;;;;;;;;;5031327;28;20050;-70
2021/01/09 08:56:03;;;;;;;43.03;22.85;;;;;;;;;;5062540;28;20044;-70
2021/01/09 08:58:32;;;;;;;43.97;23.20;;;;;;;;;;5072126;28;20056;-70
2021/01/09 09:01:01;;;;;;;42.78;22.95;;;;;;;;;;5070966;28;20052;-70
2021/01/09 09:03:28;;;;;;;43.97;23.38;;;;;;;;;;5070956;28;20051;-70
2021/01/09 09:05:54;;;;;;;44.75;24.08;;;;;;;;;;5054041;28;20092;-70
2021/01/09 09:08:20;;;;;;;44.63;22.98;;;;;;;;;;5070542;28;20048;-70
2021/01/09 09:10:47;;;;;;;49.67;23.77;;;;;;;;;;5054280;28;20425;-71
2021/01/09 09:13:22;;;;;;;40.45;20.77;;;;;;;;;;5070776;28;20049;-71
2021/01/09 09:15:48;;;;;;;44.90;21.77;;;;;;;;;;5070688;28;20048;-71
2021/01/09 09:18:15;;;;;;;37.10;20.73;;;;;;;;;;5051733;28;20126;-71
2021/01/09 09:20:47;;;;;;;47.95;22.73;;;;;;;;;;5059059;28;20056;-71
2021/01/09 09:23:22;;;;;;;44.75;22.45;;;;;;;;;;5068804;28;20141;-72
2021/01/09 09:26:11;;;;;;;40.58;20.67;;;;;;;;;;5069799;28;20092;-72
2021/01/09 09:28:54;;;;;;;39.20;19.42;;;;;;;;;;5065522;28;20075;-71
2021/01/09 09:31:22;;;;;;;39.03;19.60;;;;;;;;;;5049760;28;20454;-72
2021/01/09 09:33:58;;;;;;;41.78;20.00;;;;;;;;;;5049770;28;20504;-72
2021/01/09 09:36:25;;;;;;;33.45;18.73;;;;;;;;;;5049611;28;20053;-72
2021/01/09 09:38:52;;;;;;;39.17;19.85;;;;;;;;;;5049820;28;20102;-72
2021/01/09 09:41:18;;;;;;;35.72;19.40;;;;;;;;;;5057784;28;20117;-72
2021/01/09 09:43:59;;;;;;;33.65;18.92;;;;;;;;;;5069467;28;20174;-72
2021/01/09 09:46:27;;;;;;;36.95;18.63;;;;;;;;;;5069603;28;20060;-71
2021/01/09 09:48:58;;;;;;;35.25;18.30;;;;;;;;;;5069798;28;20052;-72
2021/01/09 09:51:32;;;;;;;34.88;18.90;;;;;;;;;;5068534;28;20044;-71
2021/01/09 09:53:58;;;;;;;32.85;19.15;;;;;;;;;;5067877;28;20132;-72
2021/01/09 09:56:25;;;;;;;35.35;19.23;;;;;;;;;;5068896;28;20724;-72
2021/01/09 09:59:05;;;;;;;35.88;17.90;;;;;;;;;;5069475;28;20052;-72
2021/01/09 10:01:31;;;;;;;37.25;19.55;;;;;;;;;;5072700;28;20126;-71
2021/01/09 10:03:58;;;;;;;33.65;17.27;;;;;;;;;;5073798;28;20056;-71
2021/01/09 10:06:34;;;;;;;36.70;19.10;;;;;;;;;;5073466;28;20052;-71
2021/01/09 10:09:20;;;;;;;32.58;17.60;;;;;;;;;;5072992;28;20495;-71
2021/01/09 10:11:48;;;;;;;32.42;17.60;;;;;;;;;;5073644;28;20044;-71
2021/01/09 10:14:21;;;;;;;29.23;17.23;;;;;;;;;;5073502;28;20059;-71
2021/01/09 10:16:47;;;;;;;32.53;17.17;;;;;;;;;;5070802;28;20063;-71
2021/01/09 10:19:16;;;;;;;36.45;19.17;;;;;;;;;;5053318;28;20053;-71
2021/01/09 10:21:43;;;;;;;30.50;17.65;;;;;;;;;;5052882;28;20084;-71
2021/01/09 10:24:09;;;;;;;29.63;16.67;;;;;;;;;;5053249;28;20092;-71
2021/01/09 10:26:35;;;;;;;32.75;18.70;;;;;;;;;;5053128;28;20052;-71
2021/01/09 10:29:03;;;;;;;28.92;16.30;;;;;;;;;;5057853;28;20524;-72
2021/01/09 10:31:32;;;;;;;26.80;15.23;;;;;;;;;;5071977;28;20133;-72
2021/01/09 10:33:58;;;;;;;25.00;13.82;;;;;;;;;;5073315;28;20123;-72
2021/01/09 10:36:35;;;;;;;21.88;12.73;;;;;;;;;;5072409;28;20083;-72
2021/01/09 10:39:02;;;;;;;21.88;12.68;;;;;;;;;;5073009;28;20048;-72
2021/01/09 10:41:28;;;;;;;21.60;11.55;;;;;;;;;;5070412;28;20080;-72
2021/01/09 10:43:57;;;;;;;17.70;9.68;;;;;;;;;;5053113;28;20118;-72
2021/01/09 10:46:30;;;;;;;20.27;11.23;;;;;;;;;;5052415;28;20056;-72
2021/01/09 10:48:57;;;;;;;18.77;11.68;;;;;;;;;;5052223;28;20407;-72
2021/01/09 10:51:24;;;;;;;21.35;11.90;;;;;;;;;;5052610;28;20404;-72
2021/01/09 10:53:50;;;;;;;16.90;10.02;;;;;;;;;;5052442;28;20049;-72
2021/01/09 10:56:17;;;;;;;16.33;9.75;;;;;;;;;;5052196;28;20466;-72
2021/01/09 10:58:43;;;;;;;14.55;9.20;;;;;;;;;;5053080;28;20084;-72
2021/01/09 11:01:09;;;;;;;14.35;9.32;;;;;;;;;;5052409;28;20089;-72
2021/01/09 11:03:36;;;;;;;15.88;9.60;;;;;;;;;;5053132;28;20045;-71
2021/01/09 11:06:04;;;;;;;16.77;9.77;;;;;;;;;;5052488;28;20083;-71
2021/01/09 11:08:30;;;;;;;14.75;9.10;;;;;;;;;;5069826;28;20048;-73
2021/01/09 11:10:56;;;;;;;13.93;8.60;;;;;;;;;;5056104;28;20102;-71
2021/01/09 11:13:23;;;;;;;14.38;8.85;;;;;;;;;;5046141;28;20048;-74
2021/01/09 11:15:50;;;;;;;12.95;7.50;;;;;;;;;;5052085;28;20049;-75
2021/01/09 11:18:17;;;;;;;15.40;8.23;;;;;;;;;;5049705;28;20088;-71
2021/01/09 11:20:47;;;;;;;15.00;8.40;;;;;;;;;;5048800;28;20128;-71
2021/01/09 11:23:14;;;;;;;13.93;9.18;;;;;;;;;;5050253;28;20044;-71
2021/01/09 11:25:45;;;;;;;13.70;8.00;;;;;;;;;;5053195;28;20044;-71
2021/01/09 11:28:11;;;;;;;13.38;7.13;;;;;;;;;;5047195;28;20564;-70
2021/01/09 11:30:38;;;;;;;11.70;7.30;;;;;;;;;;5050252;28;20081;-69
2021/01/09 11:33:05;;;;;;;12.07;7.30;;;;;;;;;;5050486;28;20412;-71
2021/01/09 11:35:31;;;;;;;13.00;7.18;;;;;;;;;;5050114;28;20049;-68
2021/01/09 11:40:52;;;;;;;13.95;8.70;;;;;;;;;;5076779;22;20045;-69
2021/01/09 11:43:18;;;;;;;15.50;9.20;;;;;;;;;;5050646;28;20084;-69
2021/01/09 11:45:44;;;;;;;13.70;8.52;;;;;;;;;;5049913;28;20549;-70
2021/01/09 11:48:10;;;;;;;15.07;8.90;;;;;;;;;;5050325;28;20205;-71
2021/01/09 11:50:37;;;;;;;11.27;6.95;;;;;;;;;;5049978;28;20056;-71
2021/01/09 11:53:17;;;;;;;10.27;6.30;;;;;;;;;;5046843;28;20044;-71
2021/01/09 11:55:43;;;;;;;11.15;6.72;;;;;;;;;;5043239;28;20292;-69
2021/01/09 11:58:09;;;;;;;13.10;7.75;;;;;;;;;;5050157;28;20538;-70
2021/01/09 12:00:36;;;;;;;13.23;6.78;;;;;;;;;;5048197;28;20045;-70
2021/01/09 12:03:03;;;;;;;11.80;7.55;;;;;;;;;;5050311;28;20053;-68
2021/01/09 12:05:29;;;;;;;10.40;7.38;;;;;;;;;;5049335;28;20359;-70
2021/01/09 12:07:55;;;;;;;10.23;6.57;;;;;;;;;;5050427;28;20128;-69
2021/01/09 12:10:22;;;;;;;11.68;7.93;;;;;;;;;;5049496;28;20075;-69
2021/01/09 12:12:48;;;;;;;11.23;7.28;;;;;;;;;;5050248;28;20045;-70
2021/01/09 12:15:14;;;;;;;13.27;8.52;;;;;;;;;;5049810;28;20084;-68
2021/01/09 12:17:40;;;;;;;13.18;8.15;;;;;;;;;;5050177;28;20106;-69
2021/01/09 12:20:26;;;;;;;11.23;7.05;;;;;;;;;;5050096;28;20055;-71
2021/01/09 12:22:52;;;;;;;10.63;6.43;;;;;;;;;;5048593;28;20040;-68
2021/01/09 12:25:19;;;;;;;11.77;6.55;;;;;;;;;;5049676;28;20076;-70
2021/01/09 12:27:45;;;;;;;11.75;6.68;;;;;;;;;;5050184;28;20049;-71
2021/01/09 12:30:13;;;;;;;9.15;6.15;;;;;;;;;;5049193;28;20435;-68
2021/01/09 12:32:39;;;;;;;9.88;6.15;;;;;;;;;;5049638;28;20049;-72
2021/01/09 12:35:06;;;;;;;10.52;7.10;;;;;;;;;;5049527;28;20049;-70
2021/01/09 12:37:33;;;;;;;11.23;6.70;;;;;;;;;;5049800;28;20438;-69
2021/01/09 12:39:59;;;;;;;10.82;7.15;;;;;;;;;;5048052;28;20064;-69
2021/01/09 12:42:28;;;;;;;10.93;6.75;;;;;;;;;;5049404;28;20203;-70
2021/01/09 12:44:54;;;;;;;10.85;7.60;;;;;;;;;;5048879;28;20063;-69
2021/01/09 12:47:20;;;;;;;11.00;7.15;;;;;;;;;;5048501;28;20132;-69
2021/01/09 12:52:01;;;;;;;11.65;7.35;;;;;;;;;;5051940;28;20053;-73
2021/01/09 12:54:14;;;;;;;11.77;8.00;;;;;;;;;;4884211;28;20061;-72
2021/01/09 12:56:41;;;;;;;11.65;7.78;;;;;;;;;;4927051;28;20500;-71
2021/01/09 12:59:11;;;;;;;11.07;7.15;;;;;;;;;;5046588;28;20122;-70
2021/01/09 13:02:09;;;;;;;10.80;7.07;;;;;;;;;;5048745;28;20045;-74
2021/01/09 13:04:36;;;;;;;14.48;8.23;;;;;;;;;;5018980;28;20060;-71
2021/01/09 13:07:02;;;;;;;15.45;8.65;;;;;;;;;;5048104;28;20500;-70
2021/01/09 13:09:29;;;;;;;13.00;7.82;;;;;;;;;;5048332;28;20087;-72
2021/01/09 13:12:00;;;;;;;10.93;7.72;;;;;;;;;;5048353;28;20087;-74
2021/01/09 13:14:27;;;;;;;12.88;8.65;;;;;;;;;;5006541;28;20057;-75
2021/01/09 13:16:56;;;;;;;14.18;8.43;;;;;;;;;;5016546;28;20495;-71
2021/01/09 13:19:22;;;;;;;9.38;6.43;;;;;;;;;;5046744;28;20118;-71
2021/01/09 13:21:53;;;;;;;8.65;5.90;;;;;;;;;;5037586;28;20049;-73
2021/01/09 13:24:21;;;;;;;9.80;6.63;;;;;;;;;;5039490;28;20496;-70
2021/01/09 13:30:26;;;;;;;10.05;6.35;;;;;;;;;;5040104;28;20103;-71
2021/01/09 13:32:52;;;;;;;8.48;6.15;;;;;;;;;;5045038;28;20045;-74
2021/01/09 13:35:40;;;;;;;9.25;6.72;;;;;;;;;;5047714;28;20080;-74
2021/01/09 13:38:09;;;;;;;11.90;7.40;;;;;;;;;;5046353;28;20083;-73
2021/01/09 13:40:37;;;;;;;13.23;8.00;;;;;;;;;;5044040;28;20525;-72
2021/01/09 13:43:04;;;;;;;13.07;8.48;;;;;;;;;;5029504;28;20049;-74
2021/01/09 13:48:47;;;;;;;10.55;6.97;;;;;;;;;;5030130;28;20049;-72
2021/01/09 13:51:20;;;;;;;12.18;7.55;;;;;;;;;;5013823;28;20056;-74
2021/01/09 13:53:48;;;;;;;11.15;7.90;;;;;;;;;;5045707;28;20048;-68
2021/01/09 13:56:15;;;;;;;13.63;8.68;;;;;;;;;;5047813;28;20053;-71
2021/01/09 13:58:41;;;;;;;11.82;8.05;;;;;;;;;;5047260;28;20041;-71
2021/01/09 14:01:19;;;;;;;13.57;8.73;;;;;;;;;;5048383;28;20045;-76
2021/01/09 14:03:45;;;;;;;12.10;7.68;;;;;;;;;;5031533;28;20128;-69
2021/01/09 14:06:15;;;;;;;15.95;9.27;;;;;;;;;;5047312;28;20060;-72
2021/01/09 14:08:50;;;;;;;17.48;9.07;;;;;;;;;;5022152;28;20475;-70
2021/01/09 14:11:31;;;;;;;14.27;8.25;;;;;;;;;;5019043;28;20076;-69
2021/01/09 14:14:23;;;;;;;14.52;8.60;;;;;;;;;;5054554;28;20098;-75
2021/01/09 14:16:50;;;;;;;14.20;8.50;;;;;;;;;;5021645;28;20045;-69
2021/01/09 14:19:19;;;;;;;14.85;8.23;;;;;;;;;;5047149;28;20055;-73
2021/01/09 14:21:46;;;;;;;15.65;9.10;;;;;;;;;;5016044;28;20146;-74
2021/01/09 14:24:17;;;;;;;15.73;9.43;;;;;;;;;;5014301;28;20067;-71
2021/01/09 14:26:44;;;;;;;14.00;8.38;;;;;;;;;;5006779;28;20049;-70
2021/01/09 14:29:12;;;;;;;12.88;8.35;;;;;;;;;;5047119;28;20060;-69
2021/01/09 14:32:28;;;;;;;14.73;8.27;;;;;;;;;;5020022;28;20248;-77
2021/01/09 14:34:56;;;;;;;15.88;9.85;;;;;;;;;;5025258;28;20056;-71
2021/01/09 14:41:13;;;;;;;13.23;8.75;;;;;;;;;;5329742;22;20473;-69
2021/01/09 14:43:42;;;;;;;14.57;9.77;;;;;;;;;;5045323;28;20542;-76